Wangaratta Aerodrome, Australia
Current Conditions -  °F | °C
As of 6:00 PM on Wednesday 26 Nov 2014 (Local Time) from YMAY Reporting Station
Clear Clear  
Wind Chill: 77°   Ceiling: Unl
Heat Index: 78°   Visibility: 6mi
Dew Point: 43°   Wind: 9mph
Humidity: 29%   Direction: 240°WSW
Pressure: 30"   Gusts: NA
Location:  36.42°S, 146.3°E
Report Text: YMAY 260700Z AUTO 24008KT 9999 // NCD 25/06 Q1016
Loading
Personal Weather Stations






























Interactive Weather Map New forecast layout! Learn more

10-Day Weather Forecast

Advertisements
Track Severe Weather on mobile